Terminal Aerodrome Forecast
Issued by NWS Jackson, MS

Home | Current Version | Previous Version | Text Only | Print | Product List | Glossary On
Versions: 1 2 3 4 5 6 7 8 9 10 11 12
000
FTUS44 KJAN 172300
TAFMEI
TAF
KMEI 172320Z 1800/1824 VRB02KT P6SM SCT250
     FM180600 VRB03KT 4SM BR SKC
     FM181400 VRB03KT P6SM SCT040=

USA.gov is the U.S. government's official web portal to all federal, state and local government web resources and services.